createdAt,value
2022-08-26T00:01:53.817Z,100048.08
2022-08-26T00:04:23.189Z,100049.73
2022-08-26T00:06:51.348Z,100047.77
2022-08-26T00:09:18.085Z,100045.33
2022-08-26T00:11:46.073Z,100042.27
2022-08-26T00:14:14.177Z,100038.69
2022-08-26T00:16:47.287Z,100037.77
2022-08-26T00:19:21.162Z,100037.52
2022-08-26T00:21:49.858Z,100033.30
2022-08-26T00:24:18.510Z,100032.58
2022-08-26T00:26:45.961Z,100032.20
2022-08-26T00:29:14.051Z,100035.44
2022-08-26T00:31:43.032Z,100036.44
2022-08-26T00:34:12.831Z,100034.55
2022-08-26T00:36:40.924Z,100030.75
2022-08-26T00:39:09.195Z,100036.52
2022-08-26T00:41:39.492Z,100034.39
2022-08-26T00:44:07.173Z,100035.13
2022-08-26T00:46:37.121Z,100033.20
2022-08-26T00:49:17.155Z,100034.20
2022-08-26T00:51:49.634Z,100030.76
2022-08-26T00:54:17.392Z,100026.15
2022-08-26T00:56:53.752Z,100026.70
2022-08-26T00:59:22.433Z,100025.77
2022-08-26T01:01:50.219Z,100019.98
2022-08-26T01:04:19.912Z,100025.36
2022-08-26T01:06:49.811Z,100020.61
2022-08-26T01:09:18.192Z,100022.05
2022-08-26T01:11:45.652Z,100021.27
2022-08-26T01:14:13.532Z,100020.79
2022-08-26T01:16:42.240Z,100020.81
2022-08-26T01:19:41.113Z,100021.36
2022-08-26T01:22:12.250Z,100028.35
2022-08-26T01:24:39.191Z,100022.96
2022-08-26T01:27:10.070Z,100024.92
2022-08-26T01:29:38.804Z,100021.77
2022-08-26T01:32:08.077Z,100021.77
2022-08-26T01:34:38.770Z,100020.17
2022-08-26T01:37:22.697Z,100020.63
2022-08-26T01:39:52.086Z,100023.55
2022-08-26T01:42:21.092Z,100024.83
2022-08-26T01:44:57.940Z,100025.73
2022-08-26T01:47:26.223Z,100023.83
2022-08-26T01:49:55.134Z,100022.42
2022-08-26T01:52:28.386Z,100018.47
2022-08-26T01:54:56.065Z,100017.16
2022-08-26T01:57:24.152Z,100018.09
2022-08-26T01:59:53.340Z,100017.98
2022-08-26T02:02:20.393Z,100020.80
2022-08-26T02:04:51.352Z,100025.20
2022-08-26T02:07:19.595Z,100025.41
2022-08-26T02:09:48.491Z,100027.43
2022-08-26T02:12:17.278Z,100025.70
2022-08-26T02:14:49.750Z,100026.89
2022-08-26T02:17:18.961Z,100024.27
2022-08-26T02:19:50.012Z,100024.38
2022-08-26T02:22:20.538Z,100024.69
2022-08-26T02:24:56.965Z,100029.44
2022-08-26T02:27:32.117Z,100025.48
2022-08-26T02:30:15.087Z,100023.79
2022-08-26T02:32:44.629Z,100017.90
2022-08-26T02:35:14.130Z,100016.30
2022-08-26T02:37:47.971Z,100014.70
2022-08-26T02:40:21.451Z,100015.23
2022-08-26T02:42:49.272Z,100009.69
2022-08-26T02:45:23.061Z,100008.58
2022-08-26T02:47:51.556Z,100006.04
2022-08-26T02:50:20.226Z,100006.59
2022-08-26T02:52:48.463Z,100002.76
2022-08-26T02:55:16.145Z,100000.03
2022-08-26T02:57:43.191Z,99996.06
2022-08-26T03:00:12.640Z,99998.40
2022-08-26T03:02:40.872Z,100004.41
2022-08-26T03:05:08.254Z,100005.94
2022-08-26T03:07:34.753Z,100004.40
2022-08-26T03:10:01.712Z,100008.20
2022-08-26T03:12:35.408Z,100002.26
2022-08-26T03:15:02.002Z,100001.18
2022-08-26T03:17:29.810Z,99997.83
2022-08-26T03:19:57.193Z,99998.15
2022-08-26T03:22:25.646Z,99995.85
2022-08-26T03:24:54.136Z,99995.46
2022-08-26T03:27:21.082Z,99994.38
2022-08-26T03:30:06.752Z,99997.02
2022-08-26T03:32:33.702Z,99995.42
2022-08-26T03:35:01.265Z,99996.72
2022-08-26T03:37:28.009Z,99995.45
2022-08-26T03:39:54.880Z,99998.11
2022-08-26T03:42:21.900Z,100000.87
2022-08-26T03:44:48.934Z,99994.98
2022-08-26T03:47:15.460Z,99997.73
2022-08-26T03:49:42.611Z,99998.39
2022-08-26T03:52:10.272Z,99999.60
2022-08-26T03:54:37.033Z,99993.73
2022-08-26T03:57:04.370Z,99992.96
2022-08-26T03:59:31.931Z,99992.89
2022-08-26T04:01:58.504Z,99995.42
2022-08-26T04:04:25.708Z,99997.12
2022-08-26T04:06:58.188Z,99992.58
2022-08-26T04:09:25.972Z,99993.90
2022-08-26T04:11:54.636Z,99991.48
2022-08-26T04:14:23.718Z,99990.73
2022-08-26T04:16:52.031Z,99990.35
2022-08-26T04:19:20.414Z,99989.59
2022-08-26T04:21:48.250Z,99986.30
2022-08-26T04:24:16.557Z,99991.27
2022-08-26T04:26:44.713Z,99997.32
2022-08-26T04:29:15.569Z,99995.20
2022-08-26T04:31:42.116Z,99998.05
2022-08-26T04:34:09.554Z,99997.30
2022-08-26T04:36:38.434Z,100000.61
2022-08-26T04:39:05.624Z,100002.95
2022-08-26T04:41:33.173Z,100001.34
2022-08-26T04:44:01.455Z,100005.67
2022-08-26T04:46:28.617Z,100001.24
2022-08-26T04:48:55.298Z,100002.34
2022-08-26T04:51:27.052Z,100001.52
2022-08-26T04:53:58.837Z,100004.58
2022-08-26T04:56:32.512Z,100007.02
2022-08-26T04:59:00.994Z,100004.05
2022-08-26T05:01:28.785Z,100000.25
2022-08-26T05:03:56.139Z,100001.73
2022-08-26T05:06:22.755Z,100002.25
2022-08-26T05:08:49.843Z,100005.81
2022-08-26T05:11:16.456Z,100007.48
2022-08-26T05:13:43.175Z,100009.46
2022-08-26T05:16:13.520Z,100015.55
2022-08-26T05:18:43.465Z,100012.23
2022-08-26T05:21:41.713Z,100010.92
2022-08-26T05:24:11.733Z,100013.55
2022-08-26T05:26:38.476Z,100012.56
2022-08-26T05:29:06.210Z,100011.23
2022-08-26T05:31:34.243Z,100008.58
2022-08-26T05:34:03.816Z,100005.77
2022-08-26T05:36:33.029Z,100005.49
2022-08-26T05:39:01.593Z,100005.95
2022-08-26T05:41:34.425Z,100007.88
2022-08-26T05:44:06.073Z,100006.41
2022-08-26T05:46:33.876Z,100006.68
2022-08-26T05:49:01.556Z,100010.80
2022-08-26T05:51:30.434Z,100005.83
2022-08-26T05:53:58.361Z,100009.06
2022-08-26T05:56:27.470Z,100009.88
2022-08-26T05:58:55.462Z,100004.90
2022-08-26T06:01:27.659Z,100005.00
2022-08-26T06:04:01.789Z,100008.42
2022-08-26T06:06:32.313Z,100003.27
2022-08-26T06:09:00.558Z,100003.04
2022-08-26T06:11:29.135Z,100004.38
2022-08-26T06:14:04.003Z,100002.02
2022-08-26T06:16:34.486Z,100003.02
2022-08-26T06:19:03.336Z,100004.55
2022-08-26T06:21:33.126Z,100007.75
2022-08-26T06:24:20.709Z,100008.47
2022-08-26T06:26:56.803Z,100006.88
2022-08-26T06:29:25.757Z,100006.19
2022-08-26T06:31:54.254Z,100005.78
2022-08-26T06:34:29.898Z,100010.70
2022-08-26T06:36:59.826Z,100008.48
2022-08-26T06:39:28.316Z,100009.95
2022-08-26T06:41:58.819Z,100010.73
2022-08-26T06:44:26.695Z,100004.54
2022-08-26T06:46:54.171Z,100008.69
2022-08-26T06:49:26.919Z,100008.23
2022-08-26T06:51:57.657Z,100008.43
2022-08-26T06:54:24.909Z,100004.17
2022-08-26T06:56:52.174Z,100007.26
2022-08-26T06:59:18.998Z,100007.88
2022-08-26T07:01:48.338Z,100007.63
2022-08-26T07:04:22.085Z,100009.87
2022-08-26T07:06:52.607Z,100010.83
2022-08-26T07:09:21.716Z,100007.25
2022-08-26T07:11:49.280Z,100003.87
2022-08-26T07:14:17.667Z,100005.92
2022-08-26T07:16:51.375Z,100007.30
2022-08-26T07:19:28.529Z,100006.60
2022-08-26T07:22:01.603Z,100008.58
2022-08-26T07:24:29.275Z,100007.98
2022-08-26T07:27:05.491Z,100006.64
2022-08-26T07:29:34.326Z,100008.63
2022-08-26T07:32:01.638Z,100009.16
2022-08-26T07:34:28.856Z,100011.98
2022-08-26T07:36:56.761Z,100008.13
2022-08-26T07:39:26.336Z,100004.36
2022-08-26T07:41:53.781Z,100006.42
2022-08-26T07:44:20.957Z,100004.70
2022-08-26T07:46:52.237Z,100004.69
2022-08-26T07:49:22.165Z,100000.43
2022-08-26T07:51:50.405Z,99999.12
2022-08-26T07:54:17.433Z,100002.27
2022-08-26T07:56:47.136Z,100000.97
2022-08-26T07:59:15.291Z,99999.46
2022-08-26T08:01:44.737Z,100006.13
2022-08-26T08:04:17.055Z,100006.77
2022-08-26T08:06:45.457Z,100006.63
2022-08-26T08:09:14.426Z,100007.17
2022-08-26T08:11:44.508Z,100007.81
2022-08-26T08:14:11.976Z,100008.66
2022-08-26T08:16:45.899Z,100007.65
2022-08-26T08:19:14.845Z,100003.98
2022-08-26T08:21:42.918Z,100000.77
2022-08-26T08:24:10.471Z,99999.83
2022-08-26T08:26:37.408Z,100002.58
2022-08-26T08:29:04.674Z,100001.89
2022-08-26T08:34:21.584Z,100001.52
2022-08-26T08:36:50.220Z,100001.01
2022-08-26T08:39:20.316Z,99994.77
2022-08-26T08:42:05.874Z,99996.38
2022-08-26T08:44:33.456Z,99991.96
2022-08-26T08:47:06.091Z,99990.58
2022-08-26T08:49:33.567Z,99989.46
2022-08-26T08:52:12.820Z,99984.32
2022-08-26T08:54:39.439Z,99987.98
2022-08-26T08:57:17.696Z,99987.17
2022-08-26T08:59:54.753Z,99982.90
2022-08-26T09:02:34.400Z,99978.41
2022-08-26T09:05:25.216Z,99972.48
2022-08-26T09:08:08.191Z,99968.86
2022-08-26T09:10:51.285Z,99967.80
2022-08-26T09:13:25.058Z,99964.92
2022-08-26T09:16:21.441Z,99965.79
2022-08-26T09:19:20.615Z,99961.64
2022-08-26T09:21:57.890Z,99964.66
2022-08-26T09:24:28.881Z,99962.18
2022-08-26T09:26:57.799Z,99962.67
2022-08-26T09:29:31.594Z,99959.78
2022-08-26T09:32:23.956Z,99957.30
2022-08-26T09:34:59.492Z,99961.39
2022-08-26T09:40:27.095Z,99959.44
2022-08-26T09:43:11.414Z,99960.94
2022-08-26T09:45:40.878Z,99959.14
2022-08-26T09:48:25.910Z,99956.71
2022-08-26T09:50:59.388Z,99945.73
2022-08-26T09:53:36.608Z,99950.20
2022-08-26T09:56:33.513Z,99946.82
2022-08-26T09:59:01.272Z,99939.95
2022-08-26T10:01:42.710Z,99939.39
2022-08-26T10:04:21.818Z,99933.73
2022-08-26T10:06:59.454Z,99934.13
2022-08-26T10:09:28.123Z,99933.81
2022-08-26T10:11:59.814Z,99928.86
2022-08-26T10:14:36.775Z,99929.88
2022-08-26T10:17:30.931Z,99926.80
2022-08-26T10:20:27.334Z,99926.00
2022-08-26T10:23:15.521Z,99918.94
2022-08-26T10:26:00.479Z,99917.77
2022-08-26T10:28:31.684Z,99918.94
2022-08-26T10:31:03.874Z,99914.67
2022-08-26T10:33:31.122Z,99907.98
2022-08-26T10:36:00.942Z,99907.19
2022-08-26T10:38:39.535Z,99906.39
2022-08-26T10:41:11.489Z,99906.29
2022-08-26T10:43:44.078Z,99904.54
2022-08-26T10:46:18.067Z,99903.42
2022-08-26T10:48:56.413Z,99903.30
2022-08-26T10:51:35.362Z,99900.62
2022-08-26T10:54:29.712Z,99894.30
2022-08-26T10:57:13.145Z,99894.98
2022-08-26T11:00:30.016Z,99895.44
2022-08-26T11:03:29.309Z,99891.61
2022-08-26T11:06:18.375Z,99889.41
2022-08-26T11:08:51.096Z,99886.88
2022-08-26T11:11:40.378Z,99884.13
2022-08-26T11:14:31.416Z,99881.08
2022-08-26T11:17:11.052Z,99879.54
2022-08-26T11:19:59.440Z,99873.45
2022-08-26T11:22:35.458Z,99870.26
2022-08-26T11:25:09.513Z,99869.48
2022-08-26T11:27:38.298Z,99865.91
2022-08-26T11:30:30.974Z,99863.69
2022-08-26T11:32:59.349Z,99859.30
2022-08-26T11:35:26.390Z,99859.97
2022-08-26T11:38:04.490Z,99859.44
2022-08-26T11:40:38.251Z,99853.04
2022-08-26T11:43:13.422Z,99852.31
2022-08-26T11:45:48.838Z,99847.41
2022-08-26T11:48:23.933Z,99846.17
2022-08-26T11:50:56.604Z,99840.98
2022-08-26T11:53:26.096Z,99837.52
2022-08-26T11:55:54.977Z,99838.66
2022-08-26T11:58:24.929Z,99834.23
2022-08-26T12:00:59.307Z,99830.13
2022-08-26T12:03:47.513Z,99826.93
2022-08-26T12:06:43.398Z,99823.76
2022-08-26T12:09:20.636Z,99817.90
2022-08-26T12:11:47.373Z,99816.31
2022-08-26T12:14:24.073Z,99812.96
2022-08-26T12:16:51.444Z,99811.41
2022-08-26T12:19:32.873Z,99804.59
2022-08-26T12:22:23.441Z,99805.50
2022-08-26T12:25:00.169Z,99808.39
2022-08-26T12:27:39.862Z,99798.14
2022-08-26T12:30:12.471Z,99801.62
2022-08-26T12:32:57.964Z,99794.36
2022-08-26T12:35:26.823Z,99795.23
2022-08-26T12:37:54.564Z,99789.77
2022-08-26T12:40:40.857Z,99788.48
2022-08-26T12:43:09.624Z,99786.23
2022-08-26T12:45:36.584Z,99783.45
2022-08-26T12:48:10.409Z,99780.14
2022-08-26T12:50:41.034Z,99776.90
2022-08-26T12:53:10.654Z,99773.40
2022-08-26T12:55:49.091Z,99774.90
2022-08-26T12:58:15.823Z,99769.55
2022-08-26T13:00:48.504Z,99768.50
2022-08-26T13:03:32.317Z,99769.51
2022-08-26T13:06:23.164Z,99770.70
2022-08-26T13:08:51.628Z,99764.30
2022-08-26T13:11:25.819Z,99762.45
2022-08-26T13:14:00.151Z,99760.69
2022-08-26T13:16:29.232Z,99756.55
2022-08-26T13:19:06.411Z,99750.83
2022-08-26T13:21:49.117Z,99745.96
2022-08-26T13:24:36.476Z,99742.94
2022-08-26T13:27:30.323Z,99741.41
2022-08-26T13:29:57.696Z,99736.00
2022-08-26T13:32:27.566Z,99730.37
2022-08-26T13:34:58.556Z,99724.98
2022-08-26T13:37:34.548Z,99720.36
2022-08-26T13:40:05.174Z,99717.72
2022-08-26T13:42:32.008Z,99714.33
2022-08-26T13:44:59.636Z,99711.91
2022-08-26T13:47:27.768Z,99711.60
2022-08-26T13:49:55.960Z,99705.08
2022-08-26T13:52:30.151Z,99699.17
2022-08-26T13:55:00.592Z,99698.39
2022-08-26T13:57:30.262Z,99695.63
2022-08-26T13:59:59.220Z,99693.19
2022-08-26T14:02:27.258Z,99692.57
2022-08-26T14:04:55.660Z,99696.70
2022-08-26T14:07:22.815Z,99688.84
2022-08-26T14:09:49.802Z,99684.20
2022-08-26T14:12:16.412Z,99686.56
2022-08-26T14:14:43.575Z,99684.46
2022-08-26T14:17:14.666Z,99684.59
2022-08-26T14:19:45.637Z,99680.07
2022-08-26T14:22:14.534Z,99683.27
2022-08-26T14:24:41.275Z,99679.31
2022-08-26T14:27:07.893Z,99680.19
2022-08-26T14:29:34.958Z,99677.98
2022-08-26T14:32:14.060Z,99682.23
2022-08-26T14:34:46.554Z,99679.69
2022-08-26T14:37:15.405Z,99680.58
2022-08-26T14:39:42.194Z,99681.50
2022-08-26T14:42:09.954Z,99682.94
2022-08-26T14:44:37.517Z,99682.10
2022-08-26T14:47:06.616Z,99681.58
2022-08-26T14:49:33.539Z,99682.44
2022-08-26T14:52:00.614Z,99679.20
2022-08-26T14:54:28.995Z,99681.79
2022-08-26T14:56:58.300Z,99680.08
2022-08-26T14:59:49.718Z,99675.36
2022-08-26T15:02:32.435Z,99670.73
2022-08-26T15:05:02.270Z,99669.91
2022-08-26T15:07:29.076Z,99666.89
2022-08-26T15:09:55.934Z,99665.64
2022-08-26T15:12:22.753Z,99666.52
2022-08-26T15:14:49.995Z,99666.39
2022-08-26T15:17:17.363Z,99664.01
2022-08-26T15:19:45.014Z,99662.09
2022-08-26T15:22:11.540Z,99658.23
2022-08-26T15:24:38.194Z,99660.20
2022-08-26T15:27:05.347Z,99663.02
2022-08-26T15:29:32.861Z,99658.38
2022-08-26T15:32:04.354Z,99658.61
2022-08-26T15:34:31.925Z,99654.27
2022-08-26T15:36:58.553Z,99652.20
2022-08-26T15:39:25.194Z,99644.78
2022-08-26T15:41:52.534Z,99643.44
2022-08-26T15:44:19.914Z,99644.80
2022-08-26T15:46:48.626Z,99645.38
2022-08-26T15:49:17.807Z,99646.39
2022-08-26T15:51:47.558Z,99646.65
2022-08-26T15:54:16.466Z,99645.03
2022-08-26T15:56:43.703Z,99643.63
2022-08-26T15:59:11.924Z,99644.58
2022-08-26T16:01:40.860Z,99642.47
2022-08-26T16:04:07.634Z,99639.98
2022-08-26T16:06:37.352Z,99637.56
2022-08-26T16:09:05.267Z,99640.52
2022-08-26T16:11:32.054Z,99636.37
2022-08-26T16:13:58.909Z,99632.48
2022-08-26T16:16:27.142Z,99626.46
2022-08-26T16:18:55.182Z,99623.44
2022-08-26T16:21:25.054Z,99623.88
2022-08-26T16:23:52.114Z,99622.98
2022-08-26T16:26:22.134Z,99620.77
2022-08-26T16:28:48.754Z,99618.92
2022-08-26T16:31:15.799Z,99617.70
2022-08-26T16:33:42.739Z,99617.98
2022-08-26T16:36:11.036Z,99617.55
2022-08-26T16:38:40.321Z,99616.83
2022-08-26T16:41:08.103Z,99616.33
2022-08-26T16:43:36.154Z,99618.97
2022-08-26T16:46:06.219Z,99613.13
2022-08-26T16:48:34.381Z,99613.55
2022-08-26T16:51:01.794Z,99609.66
2022-08-26T16:53:29.976Z,99615.58
2022-08-26T16:55:57.017Z,99615.34
2022-08-26T16:58:24.476Z,99614.85
2022-08-26T17:00:51.133Z,99613.18
2022-08-26T17:03:18.817Z,99615.27
2022-08-26T17:05:46.654Z,99612.88
2022-08-26T17:08:24.212Z,99614.84
2022-08-26T17:10:59.913Z,99616.20
2022-08-26T17:13:31.642Z,99614.63
2022-08-26T17:16:02.016Z,99617.41
2022-08-26T17:18:31.274Z,99614.18
2022-08-26T17:21:02.043Z,99617.05
2022-08-26T17:23:29.464Z,99614.30
2022-08-26T17:25:57.455Z,99613.54
2022-08-26T17:28:24.294Z,99611.72
2022-08-26T17:30:51.473Z,99613.36
2022-08-26T17:33:21.448Z,99613.43
2022-08-26T17:35:51.281Z,99614.67
2022-08-26T17:38:18.399Z,99610.02
2022-08-26T17:40:45.146Z,99614.70
2022-08-26T17:43:12.627Z,99615.36
2022-08-26T17:45:42.122Z,99616.59
2022-08-26T17:48:10.340Z,99619.77
2022-08-26T17:50:38.975Z,99624.27
2022-08-26T17:53:05.665Z,99625.88
2022-08-26T17:55:33.460Z,99626.05
2022-08-26T17:58:00.302Z,99628.26
2022-08-26T18:00:30.627Z,99624.41
2022-08-26T18:02:58.211Z,99621.45
2022-08-26T18:05:25.539Z,99623.89
2022-08-26T18:07:53.510Z,99624.61
2022-08-26T18:10:21.898Z,99622.02
2022-08-26T18:12:50.069Z,99624.98
2022-08-26T18:15:17.533Z,99618.62
2022-08-26T18:17:44.994Z,99618.76
2022-08-26T18:20:15.208Z,99618.20
2022-08-26T18:22:43.275Z,99623.81
2022-08-26T18:25:11.501Z,99621.52
2022-08-26T18:27:38.415Z,99625.09
2022-08-26T18:30:16.423Z,99621.09
2022-08-26T18:32:44.058Z,99620.64
2022-08-26T18:35:11.824Z,99618.48
2022-08-26T18:37:38.758Z,99623.06
2022-08-26T18:40:07.770Z,99624.98
2022-08-26T18:42:35.754Z,99629.24
2022-08-26T18:45:04.273Z,99633.83
2022-08-26T18:47:32.416Z,99636.13
2022-08-26T18:50:01.201Z,99640.08
2022-08-26T18:52:28.534Z,99644.19
2022-08-26T18:54:55.335Z,99646.46
2022-08-26T18:57:22.234Z,99652.29
2022-08-26T18:59:49.379Z,99655.14
2022-08-26T19:02:16.583Z,99652.52
2022-08-26T19:04:43.898Z,99651.69
2022-08-26T19:07:11.012Z,99650.77
2022-08-26T19:09:37.756Z,99656.81
2022-08-26T19:12:05.327Z,99653.71
2022-08-26T19:14:33.382Z,99658.42
2022-08-26T19:17:01.648Z,99660.93
2022-08-26T19:19:28.815Z,99669.16
2022-08-26T19:21:56.972Z,99675.92
2022-08-26T19:24:27.383Z,99677.67
2022-08-26T19:26:58.291Z,99680.89
2022-08-26T19:29:29.040Z,99684.21
2022-08-26T19:31:56.646Z,99684.80
2022-08-26T19:34:24.514Z,99683.52
2022-08-26T19:36:53.577Z,99687.31
2022-08-26T19:39:21.362Z,99688.70
2022-08-26T19:41:49.541Z,99691.46
2022-08-26T19:44:38.269Z,99692.45
2022-08-26T19:47:07.769Z,99697.31
2022-08-26T19:49:35.356Z,99701.48
2022-08-26T19:52:03.561Z,99706.34
2022-08-26T19:54:31.295Z,99711.67
2022-08-26T19:56:58.775Z,99709.11
2022-08-26T19:59:26.439Z,99708.74
2022-08-26T20:02:01.003Z,99705.80
2022-08-26T20:04:30.858Z,99699.58
2022-08-26T20:07:00.603Z,99691.46
2022-08-26T20:09:33.159Z,99677.77
2022-08-26T20:12:01.527Z,99675.20
2022-08-26T20:14:30.083Z,99675.44
2022-08-26T20:16:57.628Z,99678.66
2022-08-26T20:19:43.975Z,99678.07
2022-08-26T20:22:12.334Z,99684.70
2022-08-26T20:24:40.000Z,99687.84
2022-08-26T20:27:08.138Z,99688.60
2022-08-26T20:29:36.557Z,99682.08
2022-08-26T20:32:08.585Z,99670.35
2022-08-26T20:34:37.907Z,99665.64
2022-08-26T20:37:05.295Z,99665.48
2022-08-26T20:39:32.762Z,99668.75
2022-08-26T20:41:59.795Z,99676.48
2022-08-26T20:44:27.875Z,99685.79
2022-08-26T20:46:56.715Z,99689.95
2022-08-26T20:49:23.974Z,99700.73
2022-08-26T20:51:52.247Z,99702.21
2022-08-26T20:54:25.029Z,99705.22
2022-08-26T20:56:55.475Z,99705.33
2022-08-26T20:59:23.034Z,99703.77
2022-08-26T21:01:50.612Z,99706.00
2022-08-26T21:04:26.195Z,99699.98
2022-08-26T21:06:54.214Z,99692.84
2022-08-26T21:09:23.314Z,99688.11
2022-08-26T21:11:50.875Z,99686.35
2022-08-26T21:14:19.036Z,99681.36
2022-08-26T21:16:47.922Z,99681.10
2022-08-26T21:19:18.065Z,99685.64
2022-08-26T21:21:46.741Z,99687.72
2022-08-26T21:24:13.896Z,99696.06
2022-08-26T21:26:41.027Z,99703.40
2022-08-26T21:29:09.776Z,99703.67
2022-08-26T21:31:39.146Z,99704.33
2022-08-26T21:34:09.232Z,99698.55
2022-08-26T21:36:36.214Z,99689.30
2022-08-26T21:39:05.982Z,99688.03
2022-08-26T21:41:36.154Z,99681.50
2022-08-26T21:44:03.394Z,99680.23
2022-08-26T21:46:31.174Z,99683.77
2022-08-26T21:49:00.046Z,99685.64
2022-08-26T21:51:30.472Z,99681.79
2022-08-26T21:53:58.513Z,99674.96
2022-08-26T21:56:27.353Z,99672.27
2022-08-26T21:58:55.894Z,99670.84
2022-08-26T22:01:25.191Z,99662.09
2022-08-26T22:03:53.018Z,99658.86
2022-08-26T22:06:22.274Z,99658.48
2022-08-26T22:08:49.846Z,99655.59
2022-08-26T22:11:17.669Z,99648.65
2022-08-26T22:13:45.554Z,99645.40
2022-08-26T22:16:13.385Z,99641.80
2022-08-26T22:18:43.438Z,99637.10
2022-08-26T22:21:16.374Z,99637.09
2022-08-26T22:23:43.695Z,99633.33
2022-08-26T22:26:12.174Z,99633.85
2022-08-26T22:28:39.413Z,99634.08
2022-08-26T22:31:08.333Z,99635.52
2022-08-26T22:33:35.161Z,99640.05
2022-08-26T22:36:02.394Z,99642.06
2022-08-26T22:38:29.055Z,99639.83
2022-08-26T22:40:56.912Z,99645.46
2022-08-26T22:43:24.874Z,99653.89
2022-08-26T22:45:52.965Z,99655.17
2022-08-26T22:48:23.774Z,99657.91
2022-08-26T22:50:51.324Z,99652.79
2022-08-26T22:53:19.194Z,99646.89
2022-08-26T22:55:46.443Z,99642.56
2022-08-26T22:58:16.174Z,99642.73
2022-08-26T23:00:44.887Z,99642.99
2022-08-26T23:03:12.536Z,99637.45
2022-08-26T23:05:40.493Z,99637.98
2022-08-26T23:08:08.633Z,99635.63
2022-08-26T23:10:37.035Z,99638.17
2022-08-26T23:13:05.226Z,99636.99
2022-08-26T23:15:32.274Z,99636.27
2022-08-26T23:17:59.110Z,99635.00
2022-08-26T23:20:27.155Z,99637.55
2022-08-26T23:22:54.653Z,99634.44
2022-08-26T23:25:22.313Z,99635.35
2022-08-26T23:27:51.998Z,99640.56
2022-08-26T23:30:24.580Z,99641.90
2022-08-26T23:32:51.416Z,99637.84
2022-08-26T23:35:21.650Z,99634.02
2022-08-26T23:37:52.921Z,99632.54
2022-08-26T23:40:32.243Z,99631.85
2022-08-26T23:43:02.928Z,99630.80
2022-08-26T23:45:30.617Z,99627.07
2022-08-26T23:47:57.254Z,99624.45
2022-08-26T23:50:48.976Z,99622.30
2022-08-26T23:53:20.308Z,99623.12
2022-08-26T23:55:53.174Z,99627.70
2022-08-26T23:58:21.373Z,99633.73
